This is the latest recevied weather packets stored in our database for station/object KU4DD. If no packets are shown the sender has not sent any weather packets the latest 10 day(s).
| Time | Temp. | Humidity | Pressure | Rain* | Wind** | Luminosity | Snow |
|---|---|---|---|---|---|---|---|
| 1787424678 | 28.33° C | 76% | 1014.2 hPa | 0 mm | - | 285 W/m² | - |
| 1787424060 | 28.89° C | 76% | 1014.2 hPa | 0 mm | - | 795 W/m² | - |
| 1787420401 | 26.67° C | 82% | 1015.2 hPa | 0 mm | - | 271 W/m² | - |
| 1787419786 | 26.67° C | 83% | 1015.2 hPa | 0 mm | - | 260 W/m² | - |
| 1787417957 | 26.67° C | 81% | 1015.2 hPa | 0 mm | - | 339 W/m² | - |
| 1787417343 | 26.67° C | 82% | 1015.2 hPa | 0 mm | - | 482 W/m² | - |
| 1787415800 | 26.67° C | 82% | 1015.9 hPa | 0 mm | - | 320 W/m² | - |
| 1787414885 | 26.67° C | 81% | 1015.9 hPa | 0 mm | - | 322 W/m² | - |
| 1787413964 | 26.67° C | 83% | 1015.9 hPa | 0 mm | - | 457 W/m² | - |
| 1787412138 | 25.56° C | 85% | 1016.3 hPa | 0 mm | - | 216 W/m² | - |
| 1787410606 | 25.56° C | 88% | 1016.3 hPa | 0 mm | - | 330 W/m² | - |
| 1787409682 | 25.56° C | 87% | 1016.3 hPa | 0 mm | - | 292 W/m² | - |
| 1787407551 | 25° C | 89% | 1016.3 hPa | 0 mm | - | 345 W/m² | - |
| 1787406936 | 24.44° C | 89% | 1016.3 hPa | 0 mm | - | 171 W/m² | - |
| 1787405108 | 24.44° C | 92% | 1015.9 hPa | 0 mm | - | 260 W/m² | - |
| 1787404489 | 23.33° C | 93% | 1015.9 hPa | 0 mm | - | 246 W/m² | - |
| 1787400222 | 22.78° C | 98% | 1015.9 hPa | 0 mm | - | 251 W/m² | - |
| 1787399303 | 21.67° C | 98% | 1015.9 hPa | 0 mm | - | 153 W/m² | - |
| 1787398688 | 21.67° C | 98% | 1015.9 hPa | 0 mm | - | 76 W/m² | - |
| 1787397766 | 21.67° C | 98% | 1015.9 hPa | 0 mm | - | 39 W/m² | - |
| 1787396547 | 21.67° C | 98% | 1015.6 hPa | 0 mm | - | 21 W/m² | - |
| 1787395329 | 21.67° C | 98% | 1015.9 hPa | 0 mm | - | 0 W/m² | - |
| 1787393496 | 21.67° C | 98% | 1015.9 hPa | 0 mm | - | 0 W/m² | - |
| 1787393185 | 21.67° C | 98% | 1015.6 hPa | 0 mm | - | 0 W/m² | - |
| 1787389843 | 21.11° C | 98% | 1015.6 hPa | 0 mm | - | 0 W/m² | - |
* Rain latest hour (hover to see other rain measurements)
** Current wind speed in m/s (hover to see current wind gust speed)